sensor_id;sensor_type;location;lat;lon;timestamp;P1;durP1;ratioP1;P2;durP2;ratioP2
7539;SDS011;3811;49.006;12.076;2023-02-28T00:00:01;4.50;;;3.53;;
7539;SDS011;3811;49.006;12.076;2023-02-28T00:02:35;4.47;;;3.45;;
7539;SDS011;3811;49.006;12.076;2023-02-28T00:05:02;3.65;;;3.35;;
7539;SDS011;3811;49.006;12.076;2023-02-28T00:07:29;3.55;;;3.15;;
7539;SDS011;3811;49.006;12.076;2023-02-28T00:09:56;4.03;;;3.47;;
7539;SDS011;3811;49.006;12.076;2023-02-28T00:12:24;3.50;;;3.00;;
7539;SDS011;3811;49.006;12.076;2023-02-28T00:14:53;3.73;;;3.13;;
7539;SDS011;3811;49.006;12.076;2023-02-28T00:17:20;5.30;;;3.63;;
7539;SDS011;3811;49.006;12.076;2023-02-28T00:19:47;3.90;;;3.27;;
7539;SDS011;3811;49.006;12.076;2023-02-28T00:22:15;4.20;;;3.00;;
7539;SDS011;3811;49.006;12.076;2023-02-28T00:24:42;6.77;;;3.80;;
7539;SDS011;3811;49.006;12.076;2023-02-28T00:27:10;3.60;;;3.10;;
7539;SDS011;3811;49.006;12.076;2023-02-28T00:29:37;5.32;;;3.35;;
7539;SDS011;3811;49.006;12.076;2023-02-28T00:32:06;4.72;;;2.97;;
7539;SDS011;3811;49.006;12.076;2023-02-28T00:34:33;6.55;;;3.78;;
7539;SDS011;3811;49.006;12.076;2023-02-28T00:37:03;5.95;;;3.47;;
7539;SDS011;3811;49.006;12.076;2023-02-28T00:39:33;3.58;;;3.25;;
7539;SDS011;3811;49.006;12.076;2023-02-28T00:42:01;4.22;;;3.08;;
7539;SDS011;3811;49.006;12.076;2023-02-28T00:44:29;6.35;;;3.67;;
7539;SDS011;3811;49.006;12.076;2023-02-28T00:46:56;6.88;;;3.88;;
7539;SDS011;3811;49.006;12.076;2023-02-28T00:49:25;4.75;;;3.47;;
7539;SDS011;3811;49.006;12.076;2023-02-28T00:51:53;5.38;;;3.60;;
7539;SDS011;3811;49.006;12.076;2023-02-28T00:54:20;6.72;;;3.03;;
7539;SDS011;3811;49.006;12.076;2023-02-28T00:56:48;5.15;;;3.88;;
7539;SDS011;3811;49.006;12.076;2023-02-28T00:59:16;3.92;;;2.97;;
7539;SDS011;3811;49.006;12.076;2023-02-28T01:01:45;6.18;;;3.30;;
7539;SDS011;3811;49.006;12.076;2023-02-28T01:04:13;5.32;;;3.67;;
7539;SDS011;3811;49.006;12.076;2023-02-28T01:06:42;4.78;;;3.45;;
7539;SDS011;3811;49.006;12.076;2023-02-28T01:09:09;5.07;;;3.65;;
7539;SDS011;3811;49.006;12.076;2023-02-28T01:11:37;4.53;;;3.88;;
7539;SDS011;3811;49.006;12.076;2023-02-28T01:14:05;6.43;;;3.58;;
7539;SDS011;3811;49.006;12.076;2023-02-28T01:16:33;5.25;;;3.90;;
7539;SDS011;3811;49.006;12.076;2023-02-28T01:19:01;4.93;;;3.90;;
7539;SDS011;3811;49.006;12.076;2023-02-28T01:21:28;4.70;;;3.50;;
7539;SDS011;3811;49.006;12.076;2023-02-28T01:23:57;6.43;;;3.88;;
7539;SDS011;3811;49.006;12.076;2023-02-28T01:26:25;5.40;;;3.88;;
7539;SDS011;3811;49.006;12.076;2023-02-28T01:28:52;3.75;;;3.10;;
7539;SDS011;3811;49.006;12.076;2023-02-28T01:31:19;6.50;;;4.03;;
7539;SDS011;3811;49.006;12.076;2023-02-28T01:33:48;5.40;;;3.30;;
7539;SDS011;3811;49.006;12.076;2023-02-28T01:36:16;4.50;;;3.80;;
7539;SDS011;3811;49.006;12.076;2023-02-28T01:38:43;3.95;;;3.45;;
7539;SDS011;3811;49.006;12.076;2023-02-28T01:41:16;4.25;;;3.15;;
7539;SDS011;3811;49.006;12.076;2023-02-28T01:43:55;5.28;;;3.83;;
7539;SDS011;3811;49.006;12.076;2023-02-28T01:46:23;5.47;;;3.67;;
7539;SDS011;3811;49.006;12.076;2023-02-28T01:48:52;5.57;;;3.50;;
7539;SDS011;3811;49.006;12.076;2023-02-28T01:51:22;5.72;;;4.10;;
7539;SDS011;3811;49.006;12.076;2023-02-28T01:53:51;5.80;;;3.83;;
7539;SDS011;3811;49.006;12.076;2023-02-28T01:56:22;5.65;;;4.82;;
7539;SDS011;3811;49.006;12.076;2023-02-28T01:58:51;4.97;;;3.90;;
7539;SDS011;3811;49.006;12.076;2023-02-28T02:01:19;5.68;;;3.78;;
7539;SDS011;3811;49.006;12.076;2023-02-28T02:03:47;5.25;;;3.58;;
7539;SDS011;3811;49.006;12.076;2023-02-28T02:06:20;7.75;;;4.20;;
7539;SDS011;3811;49.006;12.076;2023-02-28T02:08:48;6.70;;;3.88;;
7539;SDS011;3811;49.006;12.076;2023-02-28T02:11:17;6.40;;;3.60;;
7539;SDS011;3811;49.006;12.076;2023-02-28T02:13:53;5.18;;;3.70;;
7539;SDS011;3811;49.006;12.076;2023-02-28T02:16:24;5.45;;;4.22;;
7539;SDS011;3811;49.006;12.076;2023-02-28T02:18:57;5.68;;;3.85;;
7539;SDS011;3811;49.006;12.076;2023-02-28T02:27:17;5.75;;;4.00;;
7539;SDS011;3811;49.006;12.076;2023-02-28T02:29:56;6.28;;;3.83;;
7539;SDS011;3811;49.006;12.076;2023-02-28T02:35:17;6.63;;;4.18;;
7539;SDS011;3811;49.006;12.076;2023-02-28T02:37:51;4.80;;;3.60;;
7539;SDS011;3811;49.006;12.076;2023-02-28T02:40:20;5.25;;;3.83;;
7539;SDS011;3811;49.006;12.076;2023-02-28T02:42:50;6.68;;;4.18;;
7539;SDS011;3811;49.006;12.076;2023-02-28T02:45:23;8.95;;;4.57;;
7539;SDS011;3811;49.006;12.076;2023-02-28T02:47:53;7.18;;;3.92;;
7539;SDS011;3811;49.006;12.076;2023-02-28T02:50:24;6.00;;;4.10;;
7539;SDS011;3811;49.006;12.076;2023-02-28T02:52:57;8.38;;;4.03;;
7539;SDS011;3811;49.006;12.076;2023-02-28T02:55:28;5.50;;;4.47;;
7539;SDS011;3811;49.006;12.076;2023-02-28T02:57:58;6.65;;;4.38;;
7539;SDS011;3811;49.006;12.076;2023-02-28T03:00:26;4.82;;;3.75;;
7539;SDS011;3811;49.006;12.076;2023-02-28T03:02:56;6.30;;;4.45;;
7539;SDS011;3811;49.006;12.076;2023-02-28T03:05:27;6.45;;;4.43;;
7539;SDS011;3811;49.006;12.076;2023-02-28T03:07:56;7.78;;;4.68;;
7539;SDS011;3811;49.006;12.076;2023-02-28T03:10:29;6.07;;;4.53;;
7539;SDS011;3811;49.006;12.076;2023-02-28T03:13:00;5.70;;;4.20;;
7539;SDS011;3811;49.006;12.076;2023-02-28T03:15:32;6.20;;;4.57;;
7539;SDS011;3811;49.006;12.076;2023-02-28T03:18:02;4.88;;;3.63;;
7539;SDS011;3811;49.006;12.076;2023-02-28T03:20:37;5.45;;;4.40;;
7539;SDS011;3811;49.006;12.076;2023-02-28T03:23:09;5.32;;;4.30;;
7539;SDS011;3811;49.006;12.076;2023-02-28T03:25:42;5.95;;;4.32;;
7539;SDS011;3811;49.006;12.076;2023-02-28T03:28:13;7.38;;;4.70;;
7539;SDS011;3811;49.006;12.076;2023-02-28T03:30:45;5.80;;;4.60;;
7539;SDS011;3811;49.006;12.076;2023-02-28T03:33:17;6.60;;;4.30;;
7539;SDS011;3811;49.006;12.076;2023-02-28T03:35:50;5.53;;;4.30;;
7539;SDS011;3811;49.006;12.076;2023-02-28T03:38:19;5.50;;;4.50;;
7539;SDS011;3811;49.006;12.076;2023-02-28T03:40:48;5.75;;;4.90;;
7539;SDS011;3811;49.006;12.076;2023-02-28T03:43:18;7.00;;;4.55;;
7539;SDS011;3811;49.006;12.076;2023-02-28T03:45:46;6.93;;;4.18;;
7539;SDS011;3811;49.006;12.076;2023-02-28T03:48:17;6.07;;;4.85;;
7539;SDS011;3811;49.006;12.076;2023-02-28T03:50:45;11.07;;;5.13;;
7539;SDS011;3811;49.006;12.076;2023-02-28T03:53:18;6.10;;;4.72;;
7539;SDS011;3811;49.006;12.076;2023-02-28T03:55:51;5.18;;;4.45;;
7539;SDS011;3811;49.006;12.076;2023-02-28T03:58:20;6.38;;;4.70;;
7539;SDS011;3811;49.006;12.076;2023-02-28T04:00:51;7.78;;;4.45;;
7539;SDS011;3811;49.006;12.076;2023-02-28T04:03:19;7.63;;;5.43;;
7539;SDS011;3811;49.006;12.076;2023-02-28T04:05:48;8.25;;;5.05;;
7539;SDS011;3811;49.006;12.076;2023-02-28T04:08:18;10.60;;;5.35;;
7539;SDS011;3811;49.006;12.076;2023-02-28T04:10:46;5.60;;;4.35;;
7539;SDS011;3811;49.006;12.076;2023-02-28T04:13:16;8.93;;;5.22;;
7539;SDS011;3811;49.006;12.076;2023-02-28T04:15:44;6.03;;;5.22;;
7539;SDS011;3811;49.006;12.076;2023-02-28T04:18:11;6.13;;;4.65;;
7539;SDS011;3811;49.006;12.076;2023-02-28T04:20:38;7.72;;;4.97;;
7539;SDS011;3811;49.006;12.076;2023-02-28T04:23:05;6.53;;;5.15;;
7539;SDS011;3811;49.006;12.076;2023-02-28T04:25:34;7.50;;;4.80;;
7539;SDS011;3811;49.006;12.076;2023-02-28T07:49:12;10.10;;;5.37;;
7539;SDS011;3811;49.006;12.076;2023-02-28T07:51:39;9.20;;;5.77;;
7539;SDS011;3811;49.006;12.076;2023-02-28T07:54:07;9.00;;;5.27;;
7539;SDS011;3811;49.006;12.076;2023-02-28T07:56:34;6.47;;;4.93;;
7539;SDS011;3811;49.006;12.076;2023-02-28T07:59:02;8.37;;;5.80;;
7539;SDS011;3811;49.006;12.076;2023-02-28T08:01:29;9.53;;;5.67;;
7539;SDS011;3811;49.006;12.076;2023-02-28T08:03:58;7.73;;;5.00;;
7539;SDS011;3811;49.006;12.076;2023-02-28T08:06:25;7.90;;;5.67;;
7539;SDS011;3811;49.006;12.076;2023-02-28T08:09:11;8.00;;;5.00;;
7539;SDS011;3811;49.006;12.076;2023-02-28T08:11:39;7.73;;;5.13;;
7539;SDS011;3811;49.006;12.076;2023-02-28T08:14:06;7.83;;;5.23;;
7539;SDS011;3811;49.006;12.076;2023-02-28T08:16:34;11.43;;;5.77;;
7539;SDS011;3811;49.006;12.076;2023-02-28T08:19:03;7.50;;;5.50;;
7539;SDS011;3811;49.006;12.076;2023-02-28T08:21:30;10.83;;;5.50;;
7539;SDS011;3811;49.006;12.076;2023-02-28T08:23:58;6.93;;;5.23;;
7539;SDS011;3811;49.006;12.076;2023-02-28T08:26:25;7.07;;;5.70;;
7539;SDS011;3811;49.006;12.076;2023-02-28T08:28:57;5.70;;;4.93;;
7539;SDS011;3811;49.006;12.076;2023-02-28T08:31:25;7.30;;;5.00;;
7539;SDS011;3811;49.006;12.076;2023-02-28T08:33:52;9.47;;;5.40;;
7539;SDS011;3811;49.006;12.076;2023-02-28T08:36:23;8.97;;;4.87;;
7539;SDS011;3811;49.006;12.076;2023-02-28T08:38:50;7.67;;;5.43;;
7539;SDS011;3811;49.006;12.076;2023-02-28T08:41:18;8.03;;;5.63;;
7539;SDS011;3811;49.006;12.076;2023-02-28T08:43:45;8.77;;;6.10;;
7539;SDS011;3811;49.006;12.076;2023-02-28T08:46:13;6.60;;;4.93;;
7539;SDS011;3811;49.006;12.076;2023-02-28T08:48:40;8.30;;;5.63;;
7539;SDS011;3811;49.006;12.076;2023-02-28T08:51:09;9.30;;;5.93;;
7539;SDS011;3811;49.006;12.076;2023-02-28T08:53:38;8.30;;;5.53;;
7539;SDS011;3811;49.006;12.076;2023-02-28T08:56:06;6.97;;;5.07;;
7539;SDS011;3811;49.006;12.076;2023-02-28T08:58:35;9.07;;;5.50;;
7539;SDS011;3811;49.006;12.076;2023-02-28T09:01:07;7.40;;;5.67;;
7539;SDS011;3811;49.006;12.076;2023-02-28T09:03:36;9.00;;;5.27;;
7539;SDS011;3811;49.006;12.076;2023-02-28T09:06:05;8.17;;;5.53;;
7539;SDS011;3811;49.006;12.076;2023-02-28T09:08:32;8.00;;;5.20;;
7539;SDS011;3811;49.006;12.076;2023-02-28T09:11:01;11.50;;;6.40;;
7539;SDS011;3811;49.006;12.076;2023-02-28T09:13:29;8.67;;;5.50;;
7539;SDS011;3811;49.006;12.076;2023-02-28T09:15:58;8.20;;;5.40;;
7539;SDS011;3811;49.006;12.076;2023-02-28T09:18:25;9.63;;;6.03;;
7539;SDS011;3811;49.006;12.076;2023-02-28T09:20:52;8.87;;;6.03;;
7539;SDS011;3811;49.006;12.076;2023-02-28T09:23:23;7.73;;;5.50;;
7539;SDS011;3811;49.006;12.076;2023-02-28T09:25:52;8.40;;;5.60;;
7539;SDS011;3811;49.006;12.076;2023-02-28T09:28:21;8.67;;;4.60;;
7539;SDS011;3811;49.006;12.076;2023-02-28T09:30:49;8.50;;;5.30;;
7539;SDS011;3811;49.006;12.076;2023-02-28T09:33:17;8.83;;;5.73;;
7539;SDS011;3811;49.006;12.076;2023-02-28T09:35:46;7.03;;;5.90;;
7539;SDS011;3811;49.006;12.076;2023-02-28T09:38:13;5.80;;;5.20;;
7539;SDS011;3811;49.006;12.076;2023-02-28T09:40:44;8.33;;;5.77;;
7539;SDS011;3811;49.006;12.076;2023-02-28T09:45:51;6.50;;;5.70;;
7539;SDS011;3811;49.006;12.076;2023-02-28T09:48:25;7.50;;;5.70;;
7539;SDS011;3811;49.006;12.076;2023-02-28T09:50:59;8.20;;;5.73;;
7539;SDS011;3811;49.006;12.076;2023-02-28T09:53:29;5.60;;;5.10;;
7539;SDS011;3811;49.006;12.076;2023-02-28T09:56:00;6.27;;;5.10;;
7539;SDS011;3811;49.006;12.076;2023-02-28T09:58:33;7.97;;;6.37;;
7539;SDS011;3811;49.006;12.076;2023-02-28T10:01:07;7.47;;;5.80;;
7539;SDS011;3811;49.006;12.076;2023-02-28T10:03:39;6.13;;;5.53;;
7539;SDS011;3811;49.006;12.076;2023-02-28T10:06:11;8.10;;;6.17;;
7539;SDS011;3811;49.006;12.076;2023-02-28T10:08:43;7.07;;;6.37;;
7539;SDS011;3811;49.006;12.076;2023-02-28T10:11:16;9.60;;;6.20;;
7539;SDS011;3811;49.006;12.076;2023-02-28T10:13:50;11.13;;;6.57;;
7539;SDS011;3811;49.006;12.076;2023-02-28T10:16:20;7.67;;;6.03;;
7539;SDS011;3811;49.006;12.076;2023-02-28T10:18:52;6.93;;;6.23;;
7539;SDS011;3811;49.006;12.076;2023-02-28T10:21:24;7.20;;;6.40;;
7539;SDS011;3811;49.006;12.076;2023-02-28T10:23:58;7.40;;;5.90;;
7539;SDS011;3811;49.006;12.076;2023-02-28T10:26:31;7.20;;;5.90;;
7539;SDS011;3811;49.006;12.076;2023-02-28T10:29:00;10.57;;;6.07;;
7539;SDS011;3811;49.006;12.076;2023-02-28T10:31:27;7.50;;;5.90;;
7539;SDS011;3811;49.006;12.076;2023-02-28T10:33:55;8.90;;;6.23;;
7539;SDS011;3811;49.006;12.076;2023-02-28T10:36:22;12.43;;;9.50;;
7539;SDS011;3811;49.006;12.076;2023-02-28T10:38:50;8.13;;;6.60;;
7539;SDS011;3811;49.006;12.076;2023-02-28T10:41:26;6.83;;;6.13;;
7539;SDS011;3811;49.006;12.076;2023-02-28T10:44:12;7.87;;;6.50;;
7539;SDS011;3811;49.006;12.076;2023-02-28T10:46:41;8.90;;;6.57;;
7539;SDS011;3811;49.006;12.076;2023-02-28T10:49:12;7.60;;;6.83;;
7539;SDS011;3811;49.006;12.076;2023-02-28T10:51:42;8.70;;;6.87;;
7539;SDS011;3811;49.006;12.076;2023-02-28T10:54:14;7.50;;;6.63;;
7539;SDS011;3811;49.006;12.076;2023-02-28T10:56:43;8.23;;;6.73;;
7539;SDS011;3811;49.006;12.076;2023-02-28T10:59:24;7.37;;;6.53;;
7539;SDS011;3811;49.006;12.076;2023-02-28T11:01:53;8.10;;;6.90;;
7539;SDS011;3811;49.006;12.076;2023-02-28T11:04:34;7.97;;;6.27;;
7539;SDS011;3811;49.006;12.076;2023-02-28T11:07:05;9.40;;;6.43;;
7539;SDS011;3811;49.006;12.076;2023-02-28T11:09:44;6.90;;;6.20;;
7539;SDS011;3811;49.006;12.076;2023-02-28T11:12:19;9.03;;;7.47;;
7539;SDS011;3811;49.006;12.076;2023-02-28T11:14:50;7.13;;;6.30;;
7539;SDS011;3811;49.006;12.076;2023-02-28T11:17:20;8.43;;;6.87;;
7539;SDS011;3811;49.006;12.076;2023-02-28T11:19:50;9.20;;;7.07;;
7539;SDS011;3811;49.006;12.076;2023-02-28T11:22:19;7.57;;;6.73;;
7539;SDS011;3811;49.006;12.076;2023-02-28T11:24:50;8.27;;;7.07;;
7539;SDS011;3811;49.006;12.076;2023-02-28T11:30:24;8.23;;;6.60;;
7539;SDS011;3811;49.006;12.076;2023-02-28T11:32:55;8.27;;;7.30;;
7539;SDS011;3811;49.006;12.076;2023-02-28T11:35:24;7.27;;;6.13;;
7539;SDS011;3811;49.006;12.076;2023-02-28T11:37:54;7.10;;;6.40;;
7539;SDS011;3811;49.006;12.076;2023-02-28T11:40:24;7.27;;;6.27;;
7539;SDS011;3811;49.006;12.076;2023-02-28T11:43:01;6.87;;;6.03;;
7539;SDS011;3811;49.006;12.076;2023-02-28T11:45:42;7.20;;;6.33;;
7539;SDS011;3811;49.006;12.076;2023-02-28T11:48:12;7.10;;;6.40;;
7539;SDS011;3811;49.006;12.076;2023-02-28T11:50:47;9.60;;;6.97;;
7539;SDS011;3811;49.006;12.076;2023-02-28T11:53:17;10.20;;;7.27;;
7539;SDS011;3811;49.006;12.076;2023-02-28T11:55:57;8.13;;;7.17;;
7539;SDS011;3811;49.006;12.076;2023-02-28T11:58:33;9.03;;;8.07;;
7539;SDS011;3811;49.006;12.076;2023-02-28T12:01:15;13.27;;;7.50;;
7539;SDS011;3811;49.006;12.076;2023-02-28T12:03:56;7.83;;;7.03;;
7539;SDS011;3811;49.006;12.076;2023-02-28T12:06:28;8.07;;;7.27;;
7539;SDS011;3811;49.006;12.076;2023-02-28T12:09:03;8.50;;;6.70;;
7539;SDS011;3811;49.006;12.076;2023-02-28T12:11:41;9.03;;;7.23;;
7539;SDS011;3811;49.006;12.076;2023-02-28T12:14:17;8.30;;;7.23;;
7539;SDS011;3811;49.006;12.076;2023-02-28T12:17:18;8.03;;;7.20;;
7539;SDS011;3811;49.006;12.076;2023-02-28T12:20:00;9.80;;;8.00;;
7539;SDS011;3811;49.006;12.076;2023-02-28T12:22:35;7.97;;;7.27;;
7539;SDS011;3811;49.006;12.076;2023-02-28T12:25:21;8.10;;;7.30;;
7539;SDS011;3811;49.006;12.076;2023-02-28T12:28:03;7.57;;;6.87;;
7539;SDS011;3811;49.006;12.076;2023-02-28T12:30:33;12.30;;;7.60;;
7539;SDS011;3811;49.006;12.076;2023-02-28T12:33:06;8.40;;;6.73;;
7539;SDS011;3811;49.006;12.076;2023-02-28T12:35:36;8.03;;;7.03;;
7539;SDS011;3811;49.006;12.076;2023-02-28T12:38:06;8.03;;;6.93;;
7539;SDS011;3811;49.006;12.076;2023-02-28T12:40:42;8.60;;;7.70;;
7539;SDS011;3811;49.006;12.076;2023-02-28T12:43:12;7.63;;;6.90;;
7539;SDS011;3811;49.006;12.076;2023-02-28T12:45:42;10.97;;;7.70;;
7539;SDS011;3811;49.006;12.076;2023-02-28T12:48:18;8.83;;;7.23;;
7539;SDS011;3811;49.006;12.076;2023-02-28T12:50:50;9.83;;;7.30;;
7539;SDS011;3811;49.006;12.076;2023-02-28T12:53:19;8.33;;;7.47;;
7539;SDS011;3811;49.006;12.076;2023-02-28T12:55:56;6.97;;;6.27;;
7539;SDS011;3811;49.006;12.076;2023-02-28T12:58:36;7.23;;;6.40;;
7539;SDS011;3811;49.006;12.076;2023-02-28T13:01:13;9.00;;;7.10;;
7539;SDS011;3811;49.006;12.076;2023-02-28T13:04:11;7.80;;;6.70;;
7539;SDS011;3811;49.006;12.076;2023-02-28T13:07:12;9.53;;;8.53;;
7539;SDS011;3811;49.006;12.076;2023-02-28T13:09:58;8.03;;;7.00;;
7539;SDS011;3811;49.006;12.076;2023-02-28T13:12:29;13.60;;;11.00;;
7539;SDS011;3811;49.006;12.076;2023-02-28T13:15:02;8.13;;;6.93;;
7539;SDS011;3811;49.006;12.076;2023-02-28T13:17:37;7.53;;;6.77;;
7539;SDS011;3811;49.006;12.076;2023-02-28T13:20:14;11.33;;;9.07;;
7539;SDS011;3811;49.006;12.076;2023-02-28T13:22:44;7.60;;;6.80;;
7539;SDS011;3811;49.006;12.076;2023-02-28T13:31:29;9.77;;;7.63;;
7539;SDS011;3811;49.006;12.076;2023-02-28T13:34:06;7.00;;;6.40;;
7539;SDS011;3811;49.006;12.076;2023-02-28T13:36:42;8.17;;;7.37;;
7539;SDS011;3811;49.006;12.076;2023-02-28T13:42:32;8.43;;;7.20;;
7539;SDS011;3811;49.006;12.076;2023-02-28T13:45:22;8.50;;;7.43;;
7539;SDS011;3811;49.006;12.076;2023-02-28T13:47:51;13.37;;;8.17;;
7539;SDS011;3811;49.006;12.076;2023-02-28T13:50:21;8.87;;;7.87;;
7539;SDS011;3811;49.006;12.076;2023-02-28T13:52:57;7.27;;;6.57;;
7539;SDS011;3811;49.006;12.076;2023-02-28T13:55:48;8.00;;;6.77;;
7539;SDS011;3811;49.006;12.076;2023-02-28T13:58:31;8.00;;;6.90;;
7539;SDS011;3811;49.006;12.076;2023-02-28T14:01:18;7.27;;;6.50;;
7539;SDS011;3811;49.006;12.076;2023-02-28T14:07:04;9.57;;;7.50;;
7539;SDS011;3811;49.006;12.076;2023-02-28T14:09:33;12.30;;;8.80;;
7539;SDS011;3811;49.006;12.076;2023-02-28T14:18:02;9.43;;;7.17;;
7539;SDS011;3811;49.006;12.076;2023-02-28T14:20:33;7.27;;;6.57;;
7539;SDS011;3811;49.006;12.076;2023-02-28T14:23:02;8.40;;;7.47;;
7539;SDS011;3811;49.006;12.076;2023-02-28T14:25:37;8.27;;;6.50;;
7539;SDS011;3811;49.006;12.076;2023-02-28T14:28:13;7.20;;;6.50;;
7539;SDS011;3811;49.006;12.076;2023-02-28T14:30:57;7.33;;;6.33;;
7539;SDS011;3811;49.006;12.076;2023-02-28T14:33:32;7.07;;;6.37;;
7539;SDS011;3811;49.006;12.076;2023-02-28T14:36:11;7.47;;;6.20;;
7539;SDS011;3811;49.006;12.076;2023-02-28T14:38:43;7.17;;;6.47;;
7539;SDS011;3811;49.006;12.076;2023-02-28T14:41:20;7.30;;;6.30;;
7539;SDS011;3811;49.006;12.076;2023-02-28T14:43:50;7.00;;;6.30;;
7539;SDS011;3811;49.006;12.076;2023-02-28T14:46:21;11.13;;;6.63;;
7539;SDS011;3811;49.006;12.076;2023-02-28T14:48:51;10.17;;;7.13;;
7539;SDS011;3811;49.006;12.076;2023-02-28T14:51:19;7.33;;;6.60;;
7539;SDS011;3811;49.006;12.076;2023-02-28T14:53:48;7.47;;;6.67;;
7539;SDS011;3811;49.006;12.076;2023-02-28T14:56:24;6.87;;;6.07;;
7539;SDS011;3811;49.006;12.076;2023-02-28T14:58:56;6.83;;;6.10;;
7539;SDS011;3811;49.006;12.076;2023-02-28T15:01:24;10.93;;;6.37;;
7539;SDS011;3811;49.006;12.076;2023-02-28T15:04:00;9.43;;;7.17;;
7539;SDS011;3811;49.006;12.076;2023-02-28T15:06:28;7.67;;;6.77;;
7539;SDS011;3811;49.006;12.076;2023-02-28T15:09:09;9.63;;;6.80;;
7539;SDS011;3811;49.006;12.076;2023-02-28T15:11:41;9.03;;;7.37;;
7539;SDS011;3811;49.006;12.076;2023-02-28T15:14:13;9.67;;;8.23;;
7539;SDS011;3811;49.006;12.076;2023-02-28T15:16:44;11.53;;;8.50;;
7539;SDS011;3811;49.006;12.076;2023-02-28T15:19:17;9.03;;;7.83;;
7539;SDS011;3811;49.006;12.076;2023-02-28T15:21:48;14.77;;;11.50;;
7539;SDS011;3811;49.006;12.076;2023-02-28T15:24:17;8.43;;;7.33;;
7539;SDS011;3811;49.006;12.076;2023-02-28T15:26:52;9.00;;;7.53;;
7539;SDS011;3811;49.006;12.076;2023-02-28T15:29:21;12.63;;;7.40;;
7539;SDS011;3811;49.006;12.076;2023-02-28T15:31:49;9.63;;;7.60;;
7539;SDS011;3811;49.006;12.076;2023-02-28T15:34:18;8.63;;;7.60;;
7539;SDS011;3811;49.006;12.076;2023-02-28T15:36:47;8.70;;;7.80;;
7539;SDS011;3811;49.006;12.076;2023-02-28T15:39:18;9.43;;;7.40;;
7539;SDS011;3811;49.006;12.076;2023-02-28T15:41:45;10.03;;;8.10;;
7539;SDS011;3811;49.006;12.076;2023-02-28T15:44:15;8.20;;;7.07;;
7539;SDS011;3811;49.006;12.076;2023-02-28T15:46:44;9.77;;;6.93;;
7539;SDS011;3811;49.006;12.076;2023-02-28T15:49:14;10.20;;;8.37;;
7539;SDS011;3811;49.006;12.076;2023-02-28T15:51:47;7.97;;;7.17;;
7539;SDS011;3811;49.006;12.076;2023-02-28T15:54:17;9.20;;;7.57;;
7539;SDS011;3811;49.006;12.076;2023-02-28T15:56:50;9.17;;;7.23;;
7539;SDS011;3811;49.006;12.076;2023-02-28T15:59:19;9.90;;;7.00;;
7539;SDS011;3811;49.006;12.076;2023-02-28T16:02:01;7.73;;;6.93;;
7539;SDS011;3811;49.006;12.076;2023-02-28T16:04:53;8.00;;;6.93;;
7539;SDS011;3811;49.006;12.076;2023-02-28T16:07:22;7.90;;;7.10;;
7539;SDS011;3811;49.006;12.076;2023-02-28T16:09:49;10.50;;;7.70;;
7539;SDS011;3811;49.006;12.076;2023-02-28T16:12:17;11.63;;;7.77;;
7539;SDS011;3811;49.006;12.076;2023-02-28T16:14:47;10.20;;;6.93;;
7539;SDS011;3811;49.006;12.076;2023-02-28T16:17:16;9.30;;;7.83;;
7539;SDS011;3811;49.006;12.076;2023-02-28T16:19:46;9.80;;;7.50;;
7539;SDS011;3811;49.006;12.076;2023-02-28T16:22:13;13.83;;;8.07;;
7539;SDS011;3811;49.006;12.076;2023-02-28T16:24:41;9.37;;;7.17;;
7539;SDS011;3811;49.006;12.076;2023-02-28T16:27:10;10.07;;;6.67;;
7539;SDS011;3811;49.006;12.076;2023-02-28T16:29:43;9.53;;;7.23;;
7539;SDS011;3811;49.006;12.076;2023-02-28T16:32:14;10.40;;;8.20;;
7539;SDS011;3811;49.006;12.076;2023-02-28T16:34:42;11.97;;;9.73;;
7539;SDS011;3811;49.006;12.076;2023-02-28T16:37:10;14.30;;;10.57;;
7539;SDS011;3811;49.006;12.076;2023-02-28T16:39:38;14.90;;;9.70;;
7539;SDS011;3811;49.006;12.076;2023-02-28T16:42:05;35.63;;;18.93;;
7539;SDS011;3811;49.006;12.076;2023-02-28T16:44:33;16.97;;;10.93;;
7539;SDS011;3811;49.006;12.076;2023-02-28T16:47:02;15.30;;;9.67;;
7539;SDS011;3811;49.006;12.076;2023-02-28T16:49:31;15.57;;;8.83;;
7539;SDS011;3811;49.006;12.076;2023-02-28T16:51:59;12.30;;;8.77;;
7539;SDS011;3811;49.006;12.076;2023-02-28T16:54:26;14.57;;;8.60;;
7539;SDS011;3811;49.006;12.076;2023-02-28T16:56:53;15.50;;;9.63;;
7539;SDS011;3811;49.006;12.076;2023-02-28T16:59:22;17.60;;;10.90;;
7539;SDS011;3811;49.006;12.076;2023-02-28T17:01:49;23.67;;;15.00;;
7539;SDS011;3811;49.006;12.076;2023-02-28T17:04:17;16.53;;;10.77;;
7539;SDS011;3811;49.006;12.076;2023-02-28T17:06:46;19.00;;;11.57;;
7539;SDS011;3811;49.006;12.076;2023-02-28T17:09:14;26.53;;;14.60;;
7539;SDS011;3811;49.006;12.076;2023-02-28T17:11:43;13.87;;;9.80;;
7539;SDS011;3811;49.006;12.076;2023-02-28T17:14:10;15.23;;;9.27;;
7539;SDS011;3811;49.006;12.076;2023-02-28T17:16:38;13.33;;;10.00;;
7539;SDS011;3811;49.006;12.076;2023-02-28T17:19:09;13.20;;;8.77;;
7539;SDS011;3811;49.006;12.076;2023-02-28T17:21:38;13.20;;;9.47;;
7539;SDS011;3811;49.006;12.076;2023-02-28T17:24:09;14.33;;;10.27;;
7539;SDS011;3811;49.006;12.076;2023-02-28T17:26:37;18.23;;;11.80;;
7539;SDS011;3811;49.006;12.076;2023-02-28T17:29:05;16.20;;;10.17;;
7539;SDS011;3811;49.006;12.076;2023-02-28T17:31:33;14.43;;;9.63;;
7539;SDS011;3811;49.006;12.076;2023-02-28T17:34:03;14.33;;;9.73;;
7539;SDS011;3811;49.006;12.076;2023-02-28T17:36:31;12.37;;;9.33;;
7539;SDS011;3811;49.006;12.076;2023-02-28T17:39:00;14.30;;;9.47;;
7539;SDS011;3811;49.006;12.076;2023-02-28T17:41:29;13.40;;;10.07;;
7539;SDS011;3811;49.006;12.076;2023-02-28T17:43:59;16.07;;;10.13;;
7539;SDS011;3811;49.006;12.076;2023-02-28T17:46:26;15.87;;;9.47;;
7539;SDS011;3811;49.006;12.076;2023-02-28T17:48:54;16.60;;;8.40;;
7539;SDS011;3811;49.006;12.076;2023-02-28T17:51:24;13.27;;;9.07;;
7539;SDS011;3811;49.006;12.076;2023-02-28T17:53:53;14.03;;;8.83;;
7539;SDS011;3811;49.006;12.076;2023-02-28T17:56:22;13.87;;;9.73;;
7539;SDS011;3811;49.006;12.076;2023-02-28T17:58:53;15.70;;;9.13;;
7539;SDS011;3811;49.006;12.076;2023-02-28T18:01:21;13.60;;;8.50;;
7539;SDS011;3811;49.006;12.076;2023-02-28T18:03:49;18.97;;;9.27;;
7539;SDS011;3811;49.006;12.076;2023-02-28T18:06:18;11.73;;;8.23;;
7539;SDS011;3811;49.006;12.076;2023-02-28T18:08:47;14.50;;;8.90;;
7539;SDS011;3811;49.006;12.076;2023-02-28T18:11:16;16.87;;;9.40;;
7539;SDS011;3811;49.006;12.076;2023-02-28T18:13:44;15.70;;;9.30;;
7539;SDS011;3811;49.006;12.076;2023-02-28T18:16:13;15.10;;;9.57;;
7539;SDS011;3811;49.006;12.076;2023-02-28T18:18:42;14.30;;;9.63;;
7539;SDS011;3811;49.006;12.076;2023-02-28T18:21:10;21.37;;;10.50;;
7539;SDS011;3811;49.006;12.076;2023-02-28T18:23:39;15.70;;;9.37;;
7539;SDS011;3811;49.006;12.076;2023-02-28T18:26:12;14.40;;;9.00;;
7539;SDS011;3811;49.006;12.076;2023-02-28T18:28:39;15.37;;;10.20;;
7539;SDS011;3811;49.006;12.076;2023-02-28T18:31:09;17.23;;;10.20;;
7539;SDS011;3811;49.006;12.076;2023-02-28T18:33:38;17.17;;;10.70;;
7539;SDS011;3811;49.006;12.076;2023-02-28T18:36:06;16.60;;;9.70;;
7539;SDS011;3811;49.006;12.076;2023-02-28T18:38:33;16.83;;;10.43;;
7539;SDS011;3811;49.006;12.076;2023-02-28T18:41:01;12.87;;;9.30;;
7539;SDS011;3811;49.006;12.076;2023-02-28T18:43:32;10.70;;;8.73;;
7539;SDS011;3811;49.006;12.076;2023-02-28T18:46:02;15.33;;;10.27;;
7539;SDS011;3811;49.006;12.076;2023-02-28T18:48:29;15.33;;;10.07;;
7539;SDS011;3811;49.006;12.076;2023-02-28T18:50:59;14.83;;;9.50;;
7539;SDS011;3811;49.006;12.076;2023-02-28T18:53:33;14.03;;;10.60;;
7539;SDS011;3811;49.006;12.076;2023-02-28T18:56:00;17.53;;;10.90;;
7539;SDS011;3811;49.006;12.076;2023-02-28T18:58:28;14.93;;;9.60;;
7539;SDS011;3811;49.006;12.076;2023-02-28T19:00:57;15.43;;;10.50;;
7539;SDS011;3811;49.006;12.076;2023-02-28T19:03:24;14.17;;;10.07;;
7539;SDS011;3811;49.006;12.076;2023-02-28T19:05:53;19.30;;;10.60;;
7539;SDS011;3811;49.006;12.076;2023-02-28T19:08:22;19.23;;;10.73;;
7539;SDS011;3811;49.006;12.076;2023-02-28T19:10:50;15.77;;;10.80;;
7539;SDS011;3811;49.006;12.076;2023-02-28T19:13:17;16.37;;;10.77;;